^^
Your Local Weather - Clay, NY Station Historical Data
Daily Summary for January 19, 2018 Units:  Metric    English   Both
« Previous Day
Next Day »
Daily Weekly Monthly Yearly Custom
  High: Low: Average:
Temperature: 0.9 °C -13.3 °C -5.2 °C
Dew Point: -4.9 °C -14.8 °C -8.6 °C
Humidity: 91% 56% 78%
Wind Speed: 8km/h 0km/h 1.9km/h
Wind Gust: 16.1km/h - -
Wind- - SW
Pressure: 1015.5 hPa 1007 hPa -
Precipitation: 0.25 mm    
Historical Graphs
 
 
Tabular Data for January 19, 2018
Time Temperature Dew Point Pressure Wind Wind Speed Wind Gust Humidity Rainfall Rate (Hourly) solar
00:00 -9.1 °C -10.7 °C 1015.5 hPa Calm     88% 0 mm 0 W/m2
00:05 -8.8 °C -10.4 °C 1015.1 hPa Calm     88% 0 mm 0 W/m2
00:13 -8.7 °C -10.3 °C 1015.1 hPa Calm     88% 0 mm 0 W/m2
00:19 -8.5 °C -10.1 °C 1015.1 hPa Calm     88% 0 mm 0 W/m2
00:25 -8.3 °C -9.9 °C 1015.1 hPa Calm     88% 0 mm 0 W/m2
00:32 -8.2 °C -9.8 °C 1015.1 hPa Calm     88% 0 mm 0 W/m2
00:38 -8.1 °C -9.7 °C 1014.8 hPa Calm     88% 0 mm 0 W/m2
00:43 -8.1 °C -9.7 °C 1014.8 hPa Calm     88% 0 mm 0 W/m2
00:49 -8.1 °C -9.7 °C 1014.8 hPa Calm     88% 0 mm 0 W/m2
00:56 -8.2 °C -9.8 °C 1014.8 hPa Calm     88% 0 mm 0 W/m2
01:02 -8.2 °C -9.8 °C 1014.8 hPa Calm     88% 0 mm 0 W/m2
01:08 -8.2 °C -9.8 °C 1014.8 hPa Calm     88% 0 mm 0 W/m2
01:14 -8.2 °C -9.8 °C 1014.8 hPa Calm     88% 0 mm 0 W/m2
01:20 -8.1 °C -9.7 °C 1014.4 hPa Calm     88% 0 mm 0 W/m2
01:25 -8.1 °C -9.7 °C 1014.4 hPa Calm     88% 0 mm 0 W/m2
01:32 -8.1 °C -9.9 °C 1014.4 hPa Calm     87% 0 mm 0 W/m2
01:38 -8.1 °C -9.9 °C 1014.4 hPa Calm     87% 0 mm 0 W/m2
01:44 -8.1 °C -9.9 °C 1014.4 hPa Calm   1.6 km/h 87% 0 mm 0 W/m2
01:50 -8.1 °C -9.9 °C 1014.4 hPa Calm     87% 0 mm 0 W/m2
01:55 -8.2 °C -9.9 °C 1014.4 hPa Calm     87% 0 mm 0 W/m2
02:02 -8.3 °C -10.1 °C 1014.4 hPa Calm     87% 0 mm 0 W/m2
02:08 -8.3 °C -10.1 °C 1014.4 hPa Calm     87% 0 mm 0 W/m2
02:13 -8.3 °C -10.1 °C 1014.4 hPa Calm     87% 0 mm 0 W/m2
02:19 -8.3 °C -9.9 °C 1014.1 hPa Calm     88% 0 mm 0 W/m2
02:26 -8.4 °C -10 °C 1014.1 hPa Calm     88% 0 mm 0 W/m2
02:32 -8.4 °C -10.1 °C 1014.1 hPa Calm     88% 0 mm 0 W/m2
02:38 -8.5 °C -10.1 °C 1014.1 hPa Calm     88% 0 mm 0 W/m2
02:43 -8.7 °C -10.4 °C 1014.1 hPa Calm     87% 0 mm 0 W/m2
02:49 -8.9 °C -10.7 °C 1014.1 hPa Calm     87% 0 mm 0 W/m2
02:56 -9.1 °C -10.9 °C 1014.1 hPa Calm     87% 0 mm 0 W/m2
03:02 -9.6 °C -11.3 °C 1014.1 hPa Calm     87% 0 mm 0 W/m2
03:08 -9.8 °C -11.6 °C 1014.1 hPa Calm     87% 0 mm 0 W/m2
03:14 -10.1 °C -11.8 °C 1014.1 hPa Calm     87% 0 mm 0 W/m2
03:19 -10.3 °C -12 °C 1014.1 hPa Calm     87% 0 mm 0 W/m2
03:25 -10.4 °C -12.2 °C 1014.1 hPa Calm     87% 0 mm 0 W/m2
03:32 -10.7 °C -12.4 °C 1014.1 hPa Calm     87% 0 mm 0 W/m2
03:38 -10.9 °C -12.6 °C 1014.1 hPa Calm     87% 0 mm 0 W/m2
03:44 -11.1 °C -12.8 °C 1014.1 hPa Calm     87% 0 mm 0 W/m2
03:50 -11.2 °C -12.9 °C 1014.1 hPa Calm     87% 0 mm 0 W/m2
03:56 -11.3 °C -12.9 °C 1014.1 hPa Calm     88% 0 mm 0 W/m2
04:02 -11.4 °C -13.2 °C 1014.1 hPa Calm     87% 0 mm 0 W/m2
04:08 -11.7 °C -13.3 °C 1014.1 hPa Calm     88% 0 mm 0 W/m2
04:13 -11.9 °C -13.6 °C 1013.8 hPa Calm     87% 0 mm 0 W/m2
04:20 -12 °C -13.6 °C 1013.8 hPa Calm     88% 0 mm 0 W/m2
04:26 -12.2 °C -13.9 °C 1013.8 hPa Calm     87% 0 mm 0 W/m2
04:32 -12.4 °C -13.9 °C 1014.1 hPa Calm     88% 0 mm 0 W/m2
04:38 -12.6 °C -14.3 °C 1014.1 hPa Calm     87% 0 mm 0 W/m2
04:44 -12.8 °C -14.5 °C 1014.1 hPa Calm     87% 0 mm 0 W/m2
04:49 -12.9 °C -14.6 °C 1013.8 hPa Calm     87% 0 mm 0 W/m2
04:56 -12.9 °C -14.5 °C 1013.8 hPa Calm     88% 0 mm 0 W/m2
05:02 -12.8 °C -14.4 °C 1013.8 hPa Calm     88% 0 mm 0 W/m2
05:08 -12.7 °C -14.3 °C 1014.1 hPa Calm     88% 0 mm 0 W/m2
05:14 -12.7 °C -14.3 °C 1014.1 hPa Calm     88% 0 mm 0 W/m2
05:20 -12.7 °C -14.3 °C 1014.1 hPa Calm     88% 0 mm 0 W/m2
05:26 -12.7 °C -14.3 °C 1014.1 hPa Calm     88% 0 mm 0 W/m2
05:32 -12.7 °C -14.3 °C 1014.1 hPa Calm     88% 0 mm 0 W/m2
05:38 -12.8 °C -14.3 °C 1014.1 hPa Calm     88% 0 mm 0 W/m2
05:43 -12.8 °C -14.4 °C 1014.1 hPa Calm     88% 0 mm 0 W/m2
05:49 -12.9 °C -14.4 °C 1014.1 hPa Calm     88% 0 mm 0 W/m2
05:56 -12.9 °C -14.4 °C 1014.1 hPa Calm     88% 0 mm 0 W/m2
06:02 -12.9 °C -14.5 °C 1014.1 hPa Calm     88% 0 mm 0 W/m2
06:08 -12.9 °C -14.5 °C 1014.1 hPa Calm     88% 0 mm 0 W/m2
06:14 -12.9 °C -14.5 °C 1013.8 hPa Calm     88% 0 mm 0 W/m2
06:20 -13 °C -14.6 °C 1013.8 hPa Calm     88% 0 mm 0 W/m2
06:25 -13.1 °C -14.6 °C 1014.1 hPa Calm     88% 0 mm 0 W/m2
06:32 -13.2 °C -14.7 °C 1014.1 hPa Calm     88% 0 mm 0 W/m2
06:38 -13.2 °C -14.8 °C 1014.1 hPa Calm     88% 0 mm 0 W/m2
06:44 -13.3 °C -14.8 °C 1014.1 hPa Calm     88% 0 mm 0 W/m2
06:50 -13.2 °C -14.7 °C 1014.1 hPa Calm     88% 0 mm 0 W/m2
06:55 -13.1 °C -14.6 °C 1014.1 hPa Calm     88% 0 mm 0 W/m2
07:02 -12.9 °C -14.4 °C 1014.1 hPa Calm     88% 0 mm 0 W/m2
07:08 -12.7 °C -14.3 °C 1014.1 hPa Calm     88% 0 mm 0 W/m2
07:14 -12.6 °C -14.2 °C 1014.1 hPa Calm     88% 0 mm 0 W/m2
07:20 -12.4 °C -13.8 °C 1014.1 hPa Calm     89% 0 mm 0 W/m2
07:25 -12 °C -13.4 °C 1014.1 hPa Calm     89% 0 mm 0 W/m2
07:32 -11.2 °C -12.7 °C 1014.1 hPa Calm     89% 0 mm 0 W/m2
07:38 -10.4 °C -11.7 °C 1014.1 hPa Calm     90% 0 mm 5 W/m2
07:44 -9.7 °C -11.1 °C 1014.4 hPa Calm     90% 0 mm 5 W/m2
07:50 -9.2 °C -10.6 °C 1014.1 hPa Calm   1.6 km/h 90% 0 mm 7 W/m2
07:55 -8.4 °C -9.6 °C 1014.1 hPa Calm   1.6 km/h 91% 0 mm 11 W/m2
08:02 -6.9 °C -8.1 °C 1014.4 hPa SW 1.6 km/h 3.2 km/h 91% 0 mm 11 W/m2
08:08 -5.9 °C -7.3 °C 1014.4 hPa SW 1.6 km/h 6.4 km/h 90% 0 mm 19 W/m2
08:13 -5.4 °C -6.9 °C 1014.1 hPa SW 1.6 km/h 1.6 km/h 89% 0 mm 23 W/m2
08:19 -4.9 °C -6.7 °C 1014.1 hPa WSW 1.6 km/h 6.4 km/h 87% 0 mm 33 W/m2
08:26 -4.4 °C -6.6 °C 1014.1 hPa SW 1.6 km/h 6.4 km/h 85% 0 mm 30 W/m2
08:32 -4.1 °C -6.5 °C 1014.1 hPa WSW 3.2 km/h 6.4 km/h 83% 0 mm 32 W/m2
08:38 -3.8 °C -6.6 °C 1014.1 hPa WSW 3.2 km/h 6.4 km/h 81% 0 mm 39 W/m2
08:43 -3.6 °C -6.3 °C 1014.1 hPa SW 3.2 km/h 8 km/h 81% 0 mm 39 W/m2
08:49 -3.4 °C -6.3 °C 1014.1 hPa SW 4.8 km/h 4.8 km/h 80% 0 mm 42 W/m2
08:56 -3.2 °C -6.3 °C 1014.1 hPa West 4.8 km/h 11.3 km/h 79% 0 mm 44 W/m2
09:02 -3.2 °C -6.4 °C 1014.1 hPa WSW 3.2 km/h 4.8 km/h 78% 0 mm 47 W/m2
09:08 -3.1 °C -6.4 °C 1014.1 hPa SW 3.2 km/h 6.4 km/h 78% 0 mm 56 W/m2
09:14 -3 °C -6.3 °C 1013.8 hPa SW 4.8 km/h 8 km/h 78% 0 mm 51 W/m2
09:20 -2.9 °C -6.2 °C 1013.8 hPa SSW 4.8 km/h 4.8 km/h 78% 0 mm 72 W/m2
09:25 -2.8 °C -6.3 °C 1013.8 hPa SW 4.8 km/h 6.4 km/h 77% 0 mm 79 W/m2
09:32 -2.7 °C -6.2 °C 1013.8 hPa SW 4.8 km/h 9.7 km/h 77% 0 mm 79 W/m2
09:38 -2.7 °C -6.2 °C 1013.8 hPa SW 4.8 km/h 9.7 km/h 77% 0 mm 88 W/m2
09:44 -2.6 °C -6.2 °C 1014.1 hPa WSW 4.8 km/h 12.9 km/h 76% 0 mm 97 W/m2
09:50 -2.5 °C -6.2 °C 1014.4 hPa SW 6.4 km/h 6.4 km/h 76% 0 mm 102 W/m2
09:55 -2.4 °C -6.1 °C 1014.4 hPa WSW 6.4 km/h 6.4 km/h 76% 0 mm 114 W/m2
10:02 -2.4 °C -6.1 °C 1014.1 hPa WSW 4.8 km/h 8 km/h 76% 0 mm 116 W/m2
10:10 -2.3 °C -6.1 °C 1014.1 hPa SW 4.8 km/h 8 km/h 75% 0 mm 141 W/m2
10:16 -2.2 °C -6 °C 1014.1 hPa SW 6.4 km/h 8 km/h 75% 0 mm 162 W/m2
10:22 -2.1 °C -5.9 °C 1014.1 hPa SW 6.4 km/h 11.3 km/h 75% 0 mm 163 W/m2
10:28 -1.9 °C -5.8 °C 1014.1 hPa SW 4.8 km/h 11.3 km/h 75% 0 mm 171 W/m2
10:34 -1.8 °C -5.6 °C 1014.1 hPa WSW 3.2 km/h 8 km/h 75% 0 mm 195 W/m2
10:40 -1.7 °C -5.6 °C 1014.1 hPa SSW 4.8 km/h 8 km/h 75% 0 mm 216 W/m2
10:45 -1.6 °C -5.7 °C 1014.1 hPa SSW 4.8 km/h 11.3 km/h 74% 0 mm 251 W/m2
10:52 -1.4 °C -5.3 °C 1013.8 hPa West 6.4 km/h 11.3 km/h 75% 0 mm 265 W/m2
10:58 -1.4 °C -5.4 °C 1013.8 hPa WSW 4.8 km/h 11.3 km/h 74% 0 mm 116 W/m2
11:03 -1.4 °C -5.4 °C 1013.8 hPa West 6.4 km/h 6.4 km/h 74% 0 mm 176 W/m2
11:09 -1.3 °C -5.5 °C 1013.8 hPa SW 6.4 km/h 11.3 km/h 73% 0 mm 237 W/m2
11:16 -1.1 °C -5.2 °C 1013.8 hPa SW 6.4 km/h 11.3 km/h 74% 0 mm 304 W/m2
11:22 -0.9 °C -5.1 °C 1013.8 hPa West 6.4 km/h 6.4 km/h 73% 0 mm 276 W/m2
11:28 -0.8 °C -5.1 °C 1013.8 hPa WSW 4.8 km/h 12.9 km/h 73% 0 mm 257 W/m2
11:34 -0.8 °C -5 °C 1013.4 hPa WSW 6.4 km/h 6.4 km/h 73% 0 mm 232 W/m2
11:39 -0.8 °C -5.3 °C 1013.8 hPa WSW 6.4 km/h 6.4 km/h 72% 0 mm 229 W/m2
11:46 -0.8 °C -5.4 °C 1013.8 hPa West 8 km/h 8 km/h 71% 0 mm 229 W/m2
11:52 -0.7 °C -5.2 °C 1013.4 hPa SW 6.4 km/h 8 km/h 72% 0 mm 244 W/m2
11:58 -0.7 °C -5.3 °C 1013.4 hPa West 6.4 km/h 8 km/h 71% 0 mm 225 W/m2
12:04 -0.7 °C -5.3 °C 1013.4 hPa SW 6.4 km/h 8 km/h 71% 0 mm 260 W/m2
12:10 -0.7 °C -5.3 °C 1013.4 hPa WSW 6.4 km/h 6.4 km/h 71% 0 mm 220 W/m2
12:15 -0.6 °C -5.4 °C 1013.1 hPa SW 6.4 km/h 9.7 km/h 70% 0 mm 283 W/m2
12:22 -0.4 °C -4.9 °C 1013.1 hPa WSW 6.4 km/h 9.7 km/h 72% 0 mm 374 W/m2
12:28 -0.5 °C -4.9 °C 1012.8 hPa WSW 6.4 km/h 9.7 km/h 72% 0 mm 376 W/m2
12:34 -0.3 °C -5.1 °C 1012.8 hPa SW 6.4 km/h 9.7 km/h 70% 0 mm 417 W/m2
12:40 -0.2 °C -5.4 °C 1012.8 hPa WSW 6.4 km/h 6.4 km/h 68% 0 mm 432 W/m2
12:46 0.2 °C -5.4 °C 1012.8 hPa SW 6.4 km/h 6.4 km/h 66% 0 mm 606 W/m2
12:52 -0.2 °C -5.8 °C 1012.8 hPa WSW 6.4 km/h 8 km/h 66% 0 mm 283 W/m2
12:58 0.3 °C -5.5 °C 1012.4 hPa SW 6.4 km/h 11.3 km/h 65% 0 mm 499 W/m2
13:04 0.7 °C -5.6 °C 1012.4 hPa SW 4.8 km/h 14.5 km/h 63% 0 mm 473 W/m2
13:10 0.6 °C -5.6 °C 1012.4 hPa South 6.4 km/h 9.7 km/h 63% 0 mm 439 W/m2
13:15 0.4 °C -5.8 °C 1012.4 hPa SW 8 km/h 12.9 km/h 63% 0 mm 355 W/m2
13:22 0.4 °C -5.8 °C 1012.4 hPa South 8 km/h 14.5 km/h 63% 0 mm 424 W/m2
13:28 0.5 °C -5.7 °C 1012.8 hPa SW 6.4 km/h 14.5 km/h 63% 0 mm 411 W/m2
13:34 0.3 °C -6.2 °C 1012.4 hPa SW 6.4 km/h 8 km/h 62% 0 mm 420 W/m2
13:40 0.3 °C -6.1 °C 1012.4 hPa SW 6.4 km/h 9.7 km/h 62% 0 mm 411 W/m2
13:45 0.2 °C -6.3 °C 1012.4 hPa West 6.4 km/h 9.7 km/h 62% 0 mm 401 W/m2
13:52 0.2 °C -6.3 °C 1012.8 hPa SW 8 km/h 9.7 km/h 62% 0 mm 396 W/m2
13:58 0.3 °C -6.4 °C 1012.8 hPa WSW 6.4 km/h 11.3 km/h 61% 0 mm 387 W/m2
14:04 0.4 °C -6.3 °C 1012.8 hPa SW 6.4 km/h 8 km/h 61% 0 mm 381 W/m2
14:10 0.3 °C -6.6 °C 1012.8 hPa SW 6.4 km/h 9.7 km/h 60% 0 mm 371 W/m2
14:15 0.4 °C -6.3 °C 1012.4 hPa South 6.4 km/h 9.7 km/h 61% 0 mm 357 W/m2
14:22 0.4 °C -6.4 °C 1012.4 hPa West 4.8 km/h 6.4 km/h 60% 0 mm 350 W/m2
14:28 0.3 °C -6.6 °C 1012.4 hPa WSW 6.4 km/h 16.1 km/h 60% 0 mm 339 W/m2
14:34 0.3 °C -6.6 °C 1012.1 hPa SW 6.4 km/h 9.7 km/h 60% 0 mm 330 W/m2
14:40 0.3 °C -6.6 °C 1011.7 hPa SSW 6.4 km/h 6.4 km/h 60% 0 mm 320 W/m2
14:45 0.3 °C -6.6 °C 1011.7 hPa SSW 6.4 km/h 11.3 km/h 60% 0 mm 309 W/m2
14:52 0.5 °C -6.4 °C 1011.7 hPa SSW 6.4 km/h 8 km/h 60% 0 mm 299 W/m2
14:58 0.5 °C -6.6 °C 1011.7 hPa SE 6.4 km/h 12.9 km/h 59% 0 mm 283 W/m2
15:03 0.4 °C -6.7 °C 1011.7 hPa South 6.4 km/h 16.1 km/h 59% 0 mm 271 W/m2
15:10 0.4 °C -6.7 °C 1011.7 hPa SSW 6.4 km/h 6.4 km/h 59% 0 mm 255 W/m2
15:16 0.5 °C -6.8 °C 1011.7 hPa South 4.8 km/h 6.4 km/h 58% 0 mm 239 W/m2
15:22 0.6 °C -6.5 °C 1011.7 hPa SW 4.8 km/h 4.8 km/h 59% 0 mm 230 W/m2
15:28 0.7 °C -6.8 °C 1011.7 hPa SW 4.8 km/h 9.7 km/h 57% 0 mm 209 W/m2
15:33 0.8 °C -6.5 °C 1011.7 hPa West 4.8 km/h 4.8 km/h 58% 0 mm 197 W/m2
15:40 0.9 °C -6.7 °C 1011.7 hPa West 3.2 km/h 3.2 km/h 57% 0 mm 185 W/m2
15:46 0.8 °C -6.7 °C 1011.7 hPa West 3.2 km/h 6.4 km/h 57% 0 mm 174 W/m2
15:52 0.8 °C -7 °C 1011.7 hPa South 3.2 km/h 6.4 km/h 56% 0 mm 156 W/m2
15:58 0.7 °C -6.9 °C 1011.7 hPa SW 3.2 km/h 8 km/h 57% 0 mm 148 W/m2
16:03 0.7 °C -7.1 °C 1011.7 hPa SW 3.2 km/h 4.8 km/h 56% 0 mm 134 W/m2
16:10 0.7 °C -7.1 °C 1011.4 hPa SW 1.6 km/h 1.6 km/h 56% 0 mm 113 W/m2
16:15 0.7 °C -7.1 °C 1011.4 hPa SSW 3.2 km/h 3.2 km/h 56% 0 mm 35 W/m2
16:22 0.6 °C -7.2 °C 1011.1 hPa SSW 1.6 km/h 3.2 km/h 56% 0 mm 26 W/m2
16:28 0.4 °C -7.2 °C 1011.1 hPa SSW 1.6 km/h 3.2 km/h 57% 0 mm 28 W/m2
16:34 0.3 °C -7.1 °C 1011.1 hPa Calm   1.6 km/h 58% 0 mm 26 W/m2
16:40 0.1 °C -7.2 °C 1011.1 hPa Calm     58% 0 mm 21 W/m2
16:46 -0.3 °C -7.3 °C 1010.7 hPa Calm     59% 0 mm 14 W/m2
16:52 -0.6 °C -7.2 °C 1010.7 hPa Calm     61% 0 mm 9 W/m2
16:58 -0.9 °C -7.1 °C 1010.7 hPa Calm     63% 0 mm 5 W/m2
17:04 -1.3 °C -7.3 °C 1010.7 hPa Calm     64% 0 mm 5 W/m2
17:10 -1.8 °C -7.3 °C 1010.4 hPa Calm     66% 0 mm 0 W/m2
17:16 -2.2 °C -7.5 °C 1010.7 hPa Calm     67% 0 mm 0 W/m2
17:22 -2.4 °C -7.3 °C 1010.7 hPa Calm     69% 0 mm 0 W/m2
17:28 -2.7 °C -7.4 °C 1010.7 hPa Calm     70% 0 mm 0 W/m2
17:36 -3.1 °C -7.6 °C 1010.7 hPa Calm     71% 0 mm 0 W/m2
17:42 -3.3 °C -7.6 °C 1010.4 hPa Calm     72% 0 mm 0 W/m2
17:48 -3.2 °C -7.4 °C 1010.7 hPa Calm     73% 0 mm 0 W/m2
17:54 -3.3 °C -7.4 °C 1010.7 hPa Calm     73% 0 mm 0 W/m2
18:00 -3.4 °C -7.6 °C 1010.7 hPa Calm     73% 0 mm 0 W/m2
18:05 -3.6 °C -7.5 °C 1010.7 hPa Calm     74% 0 mm 0 W/m2
18:12 -3.7 °C -7.7 °C 1010.7 hPa Calm     74% 0 mm 0 W/m2
18:18 -3.8 °C -7.7 °C 1010.7 hPa Calm     74% 0 mm 0 W/m2
18:23 -3.9 °C -7.8 °C 1010.7 hPa Calm   1.6 km/h 74% 0 mm 0 W/m2
18:30 -4.2 °C -7.9 °C 1010.4 hPa Calm     75% 0 mm 0 W/m2
18:35 -4.3 °C -8.1 °C 1010.4 hPa Calm     75% 0 mm 0 W/m2
18:42 -4.5 °C -8.1 °C 1010 hPa Calm     76% 0 mm 0 W/m2
18:48 -4.4 °C -7.8 °C 1010 hPa Calm     77% 0 mm 0 W/m2
18:54 -4.3 °C -7.8 °C 1010 hPa ESE 1.6 km/h 4.8 km/h 77% 0 mm 0 W/m2
19:00 -4.1 °C -7.6 °C 1010 hPa ESE 1.6 km/h 1.6 km/h 77% 0 mm 0 W/m2
19:06 -3.9 °C -7.3 °C 1010 hPa ESE 1.6 km/h 4.8 km/h 77% 0 mm 0 W/m2
19:12 -3.8 °C -7.2 °C 1010 hPa ESE 1.6 km/h 1.6 km/h 77% 0 mm 0 W/m2
19:18 -3.6 °C -7.2 °C 1010 hPa Calm   1.6 km/h 76% 0 mm 0 W/m2
19:23 -3.7 °C -7.3 °C 1009.7 hPa Calm     76% 0 mm 0 W/m2
19:30 -3.7 °C -7.3 °C 1009.7 hPa Calm     76% 0 mm 0 W/m2
19:36 -3.7 °C -7.5 °C 1009.7 hPa Calm   3.2 km/h 75% 0 mm 0 W/m2
19:42 -3.7 °C -7.5 °C 1009.7 hPa Calm     75% 0 mm 0 W/m2
19:48 -3.9 °C -7.7 °C 1009.7 hPa Calm     75% 0 mm 0 W/m2
19:53 -4.3 °C -7.9 °C 1009.7 hPa Calm     76% 0 mm 0 W/m2
19:59 -4.5 °C -8.1 °C 1009.7 hPa Calm     76% 0 mm 0 W/m2
20:05 -4.7 °C -8.1 °C 1009.7 hPa Calm     77% 0 mm 0 W/m2
20:12 -4.8 °C -8.1 °C 1009.4 hPa Calm     78% 0 mm 0 W/m2
20:18 -4.9 °C -8.2 °C 1009.4 hPa Calm     78% 0 mm 0 W/m2
20:23 -5.1 °C -8.1 °C 1009.4 hPa Calm     79% 0 mm 0 W/m2
20:29 -5.3 °C -8.3 °C 1009.4 hPa Calm     79% 0 mm 0 W/m2
20:36 -5.4 °C -8.3 °C 1009.4 hPa Calm     80% 0 mm 0 W/m2
20:42 -5.5 °C -8.2 °C 1009 hPa Calm     81% 0 mm 0 W/m2
20:48 -5.6 °C -8.3 °C 1009 hPa Calm     81% 0 mm 0 W/m2
20:53 -5.7 °C -8.4 °C 1009 hPa Calm     81% 0 mm 0 W/m2
21:00 -5.7 °C -8.2 °C 1009 hPa Calm     82% 0 mm 0 W/m2
21:05 -5.6 °C -8.2 °C 1009 hPa Calm     82% 0 mm 0 W/m2
21:12 -5.6 °C -8.2 °C 1009 hPa Calm     82% 0 mm 0 W/m2
21:18 -5.5 °C -8.1 °C 1009 hPa Calm     82% 0 mm 0 W/m2
21:24 -5.6 °C -8.2 °C 1009 hPa Calm     82% 0 mm 0 W/m2
21:29 -5.7 °C -8.2 °C 1009 hPa Calm     82% 0 mm 0 W/m2
21:36 -5.6 °C -8.2 °C 1008.7 hPa Calm     82% 0 mm 0 W/m2
21:42 -5.4 °C -7.8 °C 1008.7 hPa Calm     83% 0 mm 0 W/m2
21:48 -5.1 °C -7.6 °C 1008.4 hPa Calm     83% 0 mm 0 W/m2
21:54 -4.9 °C -7.4 °C 1008.4 hPa Calm     83% 0 mm 0 W/m2
21:59 -4.8 °C -7.2 °C 1008.4 hPa Calm     83% 0 mm 0 W/m2
22:05 -4.7 °C -7.3 °C 1008 hPa Calm     82% 0 mm 0 W/m2
22:12 -4.6 °C -7.2 °C 1008 hPa Calm     82% 0 mm 0 W/m2
22:18 -4.6 °C -7.2 °C 1008 hPa Calm     82% 0 mm 0 W/m2
22:24 -4.6 °C -7.2 °C 1008 hPa Calm     82% 0 mm 0 W/m2
22:30 -4.6 °C -7.2 °C 1008 hPa Calm     82% 0 mm 0 W/m2
22:36 -4.7 °C -7.3 °C 1008 hPa Calm     82% 0 mm 0 W/m2
22:42 -4.8 °C -7.4 °C 1007.7 hPa Calm     82% 0 mm 0 W/m2
22:48 -4.8 °C -7.4 °C 1007.3 hPa Calm     82% 0 mm 0 W/m2
22:54 -4.7 °C -7.1 °C 1007.3 hPa Calm     83% 0 mm 0 W/m2
22:59 -4.5 °C -6.9 °C 1007.3 hPa Calm     83% 0 mm 0 W/m2
23:06 -4.4 °C -6.9 °C 1007.3 hPa Calm     83% 0 mm 0 W/m2
23:12 -4.3 °C -6.7 °C 1007 hPa Calm     83% 0 mm 0 W/m2
23:18 -4.2 °C -6.6 °C 1007 hPa Calm     83% 0 mm 0 W/m2
23:24 -4.1 °C -6.5 °C 1007 hPa Calm     83% 0 mm 0 W/m2
23:30 -3.9 °C -6.3 °C 1007 hPa Calm     83% 0 mm 0 W/m2
23:35 -3.7 °C -6.1 °C 1007 hPa Calm   1.6 km/h 83% 0 mm 0 W/m2
23:42 -2.9 °C -5.6 °C 1007 hPa Calm     82% 0 mm 0 W/m2
23:48 -3.1 °C -6 °C 1007 hPa Calm   1.6 km/h 80% 0 mm 0 W/m2
23:54 -3.3 °C -6.3 °C 1007 hPa Calm     80% 0 mm 0 W/m2
23:59 -3.3 °C -6.3 °C 1007 hPa Calm     80% 0 mm 0 W/m2
Country Meadow, Clay, NY, USA
Compliments of Weather Underground - 2 mb